Time;durP1;ratioP1;P1;durP2;ratioP2;P2;SDS_P1;SDS_P2;PMS_P1;PMS_P2;Temp;Humidity;BMP_temperature;BMP_pressure;BME280_temperature;BME280_humidity;BME280_pressure;Samples;Min_cycle;Max_cycle;Signal;HPM_P1;HPM_P2
2023/07/13 00:00:26;;;;;;;3.75;1.30;;;;;;;;;;4991489;28;20026;-71
2023/07/13 00:02:55;;;;;;;2.28;1.52;;;;;;;;;;4991568;28;20029;-71
2023/07/13 00:05:21;;;;;;;2.13;1.52;;;;;;;;;;4991329;28;20027;-71
2023/07/13 00:07:48;;;;;;;2.22;1.23;;;;;;;;;;4973034;28;20477;-71
2023/07/13 00:10:14;;;;;;;2.03;1.80;;;;;;;;;;4991318;28;20061;-71
2023/07/13 00:12:40;;;;;;;4.18;1.50;;;;;;;;;;4991375;28;20026;-71
2023/07/13 00:15:20;;;;;;;4.88;1.55;;;;;;;;;;4991299;28;20033;-71
2023/07/13 00:17:47;;;;;;;3.42;1.50;;;;;;;;;;4990510;28;20030;-71
2023/07/13 00:20:13;;;;;;;2.38;1.80;;;;;;;;;;4973686;28;20520;-70
2023/07/13 00:22:39;;;;;;;2.33;1.50;;;;;;;;;;4991329;28;20154;-71
2023/07/13 00:25:05;;;;;;;2.40;1.45;;;;;;;;;;4980107;28;20030;-71
2023/07/13 00:27:31;;;;;;;1.88;1.10;;;;;;;;;;4971480;28;20019;-71
2023/07/13 00:29:58;;;;;;;2.58;1.60;;;;;;;;;;4954787;28;20525;-71
2023/07/13 00:32:25;;;;;;;3.15;1.20;;;;;;;;;;4972009;28;20502;-71
2023/07/13 00:34:51;;;;;;;1.75;1.45;;;;;;;;;;4971793;28;20031;-71
2023/07/13 00:37:17;;;;;;;3.50;1.70;;;;;;;;;;4971020;28;20027;-71
2023/07/13 00:39:43;;;;;;;3.25;1.88;;;;;;;;;;4971764;28;20031;-71
2023/07/13 00:42:10;;;;;;;4.00;2.10;;;;;;;;;;4971838;28;20031;-71
2023/07/13 00:44:36;;;;;;;4.93;2.08;;;;;;;;;;4972954;28;20023;-71
2023/07/13 00:47:03;;;;;;;3.22;2.50;;;;;;;;;;4954998;28;20070;-71
2023/07/13 00:49:31;;;;;;;6.28;2.40;;;;;;;;;;4972316;28;20041;-71
2023/07/13 00:52:01;;;;;;;2.40;2.20;;;;;;;;;;4972898;28;20035;-71
2023/07/13 00:54:30;;;;;;;3.83;2.40;;;;;;;;;;4972629;28;20030;-70
2023/07/13 00:56:57;;;;;;;5.65;2.40;;;;;;;;;;4973548;28;20081;-70
2023/07/13 00:59:24;;;;;;;2.83;2.00;;;;;;;;;;4956860;28;20037;-70
2023/07/13 01:01:50;;;;;;;5.25;2.33;;;;;;;;;;4974938;28;20027;-70
2023/07/13 01:04:16;;;;;;;3.55;2.38;;;;;;;;;;4975056;28;20086;-70
2023/07/13 01:06:43;;;;;;;2.97;2.25;;;;;;;;;;4974796;28;20030;-70
2023/07/13 01:09:10;;;;;;;4.68;2.50;;;;;;;;;;4974192;28;20069;-70
2023/07/13 01:11:36;;;;;;;4.25;2.85;;;;;;;;;;4957405;28;20031;-70
2023/07/13 01:14:03;;;;;;;5.05;2.70;;;;;;;;;;4957514;28;20428;-71
2023/07/13 01:16:30;;;;;;;3.15;2.20;;;;;;;;;;4974910;28;20090;-71
2023/07/13 01:19:01;;;;;;;3.88;2.63;;;;;;;;;;4973889;28;20019;-71
2023/07/13 01:21:28;;;;;;;5.10;2.83;;;;;;;;;;4974721;28;20081;-71
2023/07/13 01:23:54;;;;;;;3.55;2.80;;;;;;;;;;4975801;28;20038;-71
2023/07/13 01:26:20;;;;;;;6.43;2.70;;;;;;;;;;4994460;28;20121;-71
2023/07/13 01:28:46;;;;;;;4.15;3.05;;;;;;;;;;4993466;28;20018;-71
2023/07/13 01:31:12;;;;;;;4.35;2.45;;;;;;;;;;4994105;28;20473;-70
2023/07/13 01:33:40;;;;;;;6.28;2.45;;;;;;;;;;4993733;28;20098;-70
2023/07/13 01:36:09;;;;;;;5.07;2.83;;;;;;;;;;4994220;28;20030;-70
2023/07/13 01:38:36;;;;;;;3.53;2.70;;;;;;;;;;4993035;28;20035;-69
2023/07/13 01:41:02;;;;;;;3.10;2.25;;;;;;;;;;4994175;28;20061;-69
2023/07/13 01:43:28;;;;;;;3.45;2.05;;;;;;;;;;4993883;28;20437;-69
2023/07/13 01:45:54;;;;;;;3.75;2.45;;;;;;;;;;4994408;28;20173;-69
2023/07/13 01:48:20;;;;;;;4.53;2.35;;;;;;;;;;4993261;28;20030;-70
2023/07/13 01:50:46;;;;;;;6.18;2.60;;;;;;;;;;4993954;28;20048;-70
2023/07/13 01:53:12;;;;;;;4.53;2.30;;;;;;;;;;4993625;28;20043;-70
2023/07/13 01:55:38;;;;;;;4.00;2.25;;;;;;;;;;4993395;28;20113;-70
2023/07/13 01:58:05;;;;;;;3.00;2.10;;;;;;;;;;4992843;28;20109;-70
2023/07/13 02:00:31;;;;;;;3.50;2.75;;;;;;;;;;4993155;28;20034;-70
2023/07/13 02:02:57;;;;;;;3.67;2.53;;;;;;;;;;4993154;28;20022;-69
2023/07/13 02:05:23;;;;;;;3.97;2.25;;;;;;;;;;4993266;28;20117;-70
2023/07/13 02:07:49;;;;;;;5.45;2.85;;;;;;;;;;4992461;28;20150;-69
2023/07/13 02:10:16;;;;;;;7.63;2.70;;;;;;;;;;4992448;28;20022;-70
2023/07/13 02:12:42;;;;;;;3.65;2.58;;;;;;;;;;4993369;28;20034;-69
2023/07/13 02:15:09;;;;;;;5.80;2.88;;;;;;;;;;4975523;28;20045;-69
2023/07/13 02:17:36;;;;;;;3.10;2.58;;;;;;;;;;4992554;28;20031;-70
2023/07/13 02:20:03;;;;;;;6.45;2.85;;;;;;;;;;4992991;28;20081;-70
2023/07/13 02:22:29;;;;;;;7.35;2.88;;;;;;;;;;4992985;28;20037;-70
2023/07/13 02:24:55;;;;;;;6.55;2.40;;;;;;;;;;4992999;28;20019;-70
2023/07/13 02:27:21;;;;;;;4.93;2.60;;;;;;;;;;4974711;28;20018;-70
2023/07/13 02:29:47;;;;;;;4.40;2.42;;;;;;;;;;4992614;28;20429;-70
2023/07/13 02:32:13;;;;;;;2.97;2.47;;;;;;;;;;4992618;28;20034;-70
2023/07/13 02:34:39;;;;;;;5.78;3.17;;;;;;;;;;4992936;28;20778;-70
2023/07/13 02:37:05;;;;;;;5.45;3.08;;;;;;;;;;4992306;28;20026;-70
2023/07/13 02:39:32;;;;;;;5.93;3.08;;;;;;;;;;4993624;28;20113;-70
2023/07/13 02:41:59;;;;;;;3.47;2.80;;;;;;;;;;4992422;28;20045;-70
2023/07/13 02:44:25;;;;;;;3.05;2.35;;;;;;;;;;4992534;28;20048;-70
2023/07/13 02:46:51;;;;;;;6.53;3.20;;;;;;;;;;4992571;28;20113;-70
2023/07/13 02:49:17;;;;;;;4.72;3.13;;;;;;;;;;4991536;28;20026;-70
2023/07/13 02:51:43;;;;;;;5.95;3.20;;;;;;;;;;4992191;28;20019;-70
2023/07/13 02:54:09;;;;;;;5.65;2.83;;;;;;;;;;4992245;28;20031;-70
2023/07/13 02:56:35;;;;;;;6.00;2.95;;;;;;;;;;4992263;28;20038;-70
2023/07/13 02:59:02;;;;;;;4.57;3.33;;;;;;;;;;4991234;28;20124;-71
2023/07/13 03:01:28;;;;;;;5.20;2.85;;;;;;;;;;4992281;28;20057;-71
2023/07/13 03:03:54;;;;;;;8.52;4.13;;;;;;;;;;4992008;28;20122;-70
2023/07/13 03:06:21;;;;;;;5.50;3.08;;;;;;;;;;4974853;28;20468;-70
2023/07/13 03:08:49;;;;;;;6.72;3.70;;;;;;;;;;4991131;28;20022;-71
2023/07/13 03:11:17;;;;;;;8.18;3.30;;;;;;;;;;4992046;28;20031;-71
2023/07/13 03:13:43;;;;;;;4.68;2.80;;;;;;;;;;4991798;28;20026;-71
2023/07/13 03:16:10;;;;;;;3.95;2.75;;;;;;;;;;4992058;28;20065;-71
2023/07/13 03:18:37;;;;;;;4.20;2.92;;;;;;;;;;4991112;28;20088;-70
2023/07/13 03:21:03;;;;;;;5.22;3.10;;;;;;;;;;4991989;28;20026;-71
2023/07/13 03:23:29;;;;;;;5.80;3.10;;;;;;;;;;4991705;28;20492;-71
2023/07/13 03:26:07;;;;;;;7.75;3.05;;;;;;;;;;4974164;28;20034;-71
2023/07/13 03:28:33;;;;;;;4.55;3.20;;;;;;;;;;4971437;28;20053;-71
2023/07/13 03:31:04;;;;;;;5.90;3.20;;;;;;;;;;4972546;28;20035;-71
2023/07/13 03:33:30;;;;;;;3.50;2.77;;;;;;;;;;4972221;28;20048;-70
2023/07/13 03:35:57;;;;;;;7.63;3.88;;;;;;;;;;4972316;28;20058;-70
2023/07/13 03:38:23;;;;;;;8.05;3.75;;;;;;;;;;4971568;28;20027;-70
2023/07/13 03:40:49;;;;;;;6.30;3.20;;;;;;;;;;4972153;28;20424;-70
2023/07/13 03:43:15;;;;;;;5.43;3.15;;;;;;;;;;4972184;28;20496;-70
2023/07/13 03:45:41;;;;;;;5.43;3.70;;;;;;;;;;4971742;28;20091;-70
2023/07/13 03:48:07;;;;;;;5.57;3.55;;;;;;;;;;4971185;28;20034;-70
2023/07/13 03:50:33;;;;;;;6.95;3.55;;;;;;;;;;4971938;28;20026;-69
2023/07/13 03:53:00;;;;;;;9.85;4.97;;;;;;;;;;4972069;28;20031;-69
2023/07/13 03:55:26;;;;;;;6.18;3.85;;;;;;;;;;4971654;28;20030;-69
2023/07/13 03:57:58;;;;;;;5.68;3.30;;;;;;;;;;4971151;28;20031;-70
2023/07/13 04:00:24;;;;;;;5.85;3.38;;;;;;;;;;4972203;28;20031;-70
2023/07/13 04:02:50;;;;;;;6.65;3.50;;;;;;;;;;4972062;28;20035;-70
2023/07/13 04:05:16;;;;;;;7.95;3.67;;;;;;;;;;4972003;28;20504;-70
2023/07/13 04:07:42;;;;;;;6.72;3.67;;;;;;;;;;4971020;28;20107;-70
2023/07/13 04:10:08;;;;;;;4.85;3.53;;;;;;;;;;4985091;28;20022;-70
2023/07/13 04:12:34;;;;;;;4.78;3.17;;;;;;;;;;4990700;28;20042;-69
2023/07/13 04:15:00;;;;;;;4.57;3.20;;;;;;;;;;4990985;28;20027;-70
2023/07/13 04:17:26;;;;;;;5.07;3.17;;;;;;;;;;4990416;28;20029;-70
2023/07/13 04:19:52;;;;;;;8.90;3.72;;;;;;;;;;4990918;28;20027;-70
2023/07/13 04:22:18;;;;;;;10.15;3.38;;;;;;;;;;4990506;28;20065;-70
2023/07/13 04:24:44;;;;;;;4.57;2.88;;;;;;;;;;4991438;28;20085;-70
2023/07/13 04:27:10;;;;;;;6.70;2.78;;;;;;;;;;4990159;28;20105;-70
2023/07/13 04:29:36;;;;;;;8.30;3.67;;;;;;;;;;4990903;28;20023;-70
2023/07/13 04:32:02;;;;;;;7.93;3.60;;;;;;;;;;4988948;28;20374;-70
2023/07/13 04:34:28;;;;;;;12.50;3.88;;;;;;;;;;4989337;28;20076;-70
2023/07/13 04:36:54;;;;;;;8.48;3.67;;;;;;;;;;4985424;28;20046;-70
2023/07/13 04:39:20;;;;;;;13.48;4.72;;;;;;;;;;4976506;28;20112;-77
2023/07/13 04:41:46;;;;;;;8.07;3.70;;;;;;;;;;4976013;28;20030;-76
2023/07/13 04:44:12;;;;;;;7.20;3.63;;;;;;;;;;4985752;28;20540;-76
2023/07/13 04:46:38;;;;;;;10.50;3.45;;;;;;;;;;4985197;28;20033;-76
2023/07/13 04:49:04;;;;;;;10.43;4.25;;;;;;;;;;4990417;28;20099;-77
2023/07/13 04:51:30;;;;;;;7.85;4.05;;;;;;;;;;5011391;28;20105;-77
2023/07/13 04:53:56;;;;;;;7.72;3.42;;;;;;;;;;4994819;28;20069;-76
2023/07/13 04:56:22;;;;;;;6.57;2.95;;;;;;;;;;4994407;28;20093;-76
2023/07/13 04:58:51;;;;;;;8.98;3.40;;;;;;;;;;4992844;28;20022;-76
2023/07/13 05:01:17;;;;;;;8.30;3.38;;;;;;;;;;4993724;28;20026;-77
2023/07/13 05:03:43;;;;;;;5.63;2.83;;;;;;;;;;4993331;28;20034;-77
2023/07/13 05:06:13;;;;;;;5.03;2.70;;;;;;;;;;4993185;28;20546;-77
2023/07/13 05:08:39;;;;;;;7.47;2.87;;;;;;;;;;4992382;28;20030;-77
2023/07/13 05:11:07;;;;;;;10.85;2.97;;;;;;;;;;4976284;28;20266;-77
2023/07/13 05:13:33;;;;;;;6.53;2.67;;;;;;;;;;4995030;28;20121;-78
2023/07/13 05:16:00;;;;;;;6.30;2.90;;;;;;;;;;4994638;28;20034;-77
2023/07/13 05:18:26;;;;;;;9.38;2.45;;;;;;;;;;4993748;28;20049;-77
2023/07/13 05:21:03;;;;;;;12.20;2.72;;;;;;;;;;4976904;28;20030;-77
2023/07/13 05:23:29;;;;;;;8.20;2.88;;;;;;;;;;4994700;28;20033;-77
2023/07/13 05:25:58;;;;;;;7.32;2.47;;;;;;;;;;4976991;28;20026;-77
2023/07/13 05:28:24;;;;;;;10.43;2.80;;;;;;;;;;4976324;28;20033;-78
2023/07/13 05:30:50;;;;;;;3.88;2.05;;;;;;;;;;4977013;28;20026;-77
2023/07/13 05:33:19;;;;;;;6.07;2.60;;;;;;;;;;4994251;28;20080;-77
2023/07/13 05:35:45;;;;;;;8.38;2.40;;;;;;;;;;4976544;28;20038;-77
2023/07/13 05:38:11;;;;;;;5.63;2.15;;;;;;;;;;4992747;28;20034;-78
2023/07/13 05:40:37;;;;;;;6.22;2.55;;;;;;;;;;4976142;28;20026;-77
2023/07/13 05:43:03;;;;;;;8.23;2.42;;;;;;;;;;4993731;28;20114;-77
2023/07/13 05:45:29;;;;;;;6.20;2.80;;;;;;;;;;4975406;28;20018;-78
2023/07/13 05:47:55;;;;;;;7.88;2.70;;;;;;;;;;4981703;28;20718;-78
2023/07/13 05:50:21;;;;;;;7.20;2.70;;;;;;;;;;4976873;28;20037;-78
2023/07/13 05:52:47;;;;;;;7.13;2.40;;;;;;;;;;4973205;28;20433;-78
2023/07/13 05:55:13;;;;;;;9.32;2.00;;;28.80;46.20;;;;;;4974406;28;20030;-78
2023/07/13 05:57:44;;;;;;;17.10;2.65;;;29.80;43.00;;;;;;4972894;28;20030;-77
2023/07/13 06:00:10;;;;;;;;;;;30.40;41.50;;;;;;4975077;28;20031;-76
2023/07/13 06:02:42;;;;;;;7.57;2.00;;;30.00;41.90;;;;;;4973496;28;19916;-77
2023/07/13 06:05:10;;;;;;;4.43;1.73;;;30.00;41.10;;;;;;4974449;28;20490;-78
2023/07/13 06:07:36;;;;;;;5.65;2.00;;;30.70;40.90;;;;;;4976563;28;20039;-77
2023/07/13 06:10:05;;;;;;;7.80;1.98;;;30.70;40.60;;;;;;4976891;28;20030;-78
2023/07/13 06:12:34;;;;;;;2.75;1.70;;;30.90;40.30;;;;;;4975584;28;20027;-78
2023/07/13 06:15:00;;;;;;;3.83;2.08;;;31.20;39.60;;;;;;4976629;28;20035;-78
2023/07/13 06:17:28;;;;;;;4.80;2.35;;;31.80;39.30;;;;;;4976379;28;20151;-77
2023/07/13 06:19:56;;;;;;;4.20;2.20;;;31.60;38.70;;;;;;4976423;28;20031;-78
2023/07/13 06:22:25;;;;;;;3.85;2.00;;;;;;;;;;4974888;28;20027;-77
2023/07/13 06:24:51;;;;;;;4.20;2.10;;;;;;;;;;4985484;28;20029;-81
2023/07/13 06:27:20;;;;;;;8.63;2.45;;;;;;;;;;4996505;28;20041;-78
2023/07/13 06:29:48;;;;;;;5.90;2.00;;;;;;;;;;4994633;28;20047;-77
2023/07/13 06:32:17;;;;;;;3.97;1.50;;;35.10;33.30;;;;;;4992768;28;20109;-77
2023/07/13 06:34:45;;;;;;;5.05;1.85;;;35.20;33.00;;;;;;4976874;28;20030;-77
2023/07/13 06:37:11;;;;;;;3.13;1.77;;;35.00;33.50;;;;;;4975394;28;20061;-77
2023/07/13 06:39:37;;;;;;;4.18;1.67;;;;;;;;;;4978298;28;20057;-77
2023/07/13 06:42:03;;;;;;;5.10;2.20;;;33.40;35.50;;;;;;4986303;28;20031;-78
2023/07/13 06:44:29;;;;;;;6.53;1.88;;;33.70;34.90;;;;;;4992907;28;20042;-77
2023/07/13 06:46:54;;;;;;;3.95;2.08;;;33.60;36.00;;;;;;4987695;28;20473;-76
2023/07/13 06:49:20;;;;;;;4.93;1.75;;;34.90;34.20;;;;;;4991914;28;20093;-77
2023/07/13 06:51:46;;;;;;;4.30;1.65;;;36.20;31.80;;;;;;4992496;28;20023;-77
2023/07/13 06:54:12;;;;;;;4.03;1.77;;;;;;;;;;4992489;28;20503;-77
2023/07/13 06:56:38;;;;;;;3.55;1.77;;;36.80;30.10;;;;;;4981379;28;20401;-77
2023/07/13 06:59:07;;;;;;;2.58;1.33;;;36.80;30.20;;;;;;4991564;28;20027;-77
2023/07/13 07:01:33;;;;;;;5.35;1.90;;;37.30;29.90;;;;;;4992017;28;20081;-77
2023/07/13 07:04:03;;;;;;;4.40;1.70;;;36.80;28.30;;;;;;4986292;28;20029;-78
2023/07/13 07:06:29;;;;;;;;;;;;;;;;;;4994324;28;20584;-78
2023/07/13 07:08:55;;;;;;;2.67;1.60;;;;;;;;;;4977975;28;20000;-77
2023/07/13 07:11:24;;;;;;;5.38;2.00;;;;;;;;;;4992209;28;20045;-79
2023/07/13 07:13:51;;;;;;;2.95;1.40;;;;;;;;;;4975112;28;20026;-76
2023/07/13 07:16:18;;;;;;;3.08;1.50;;;;;;;;;;4982318;28;20113;-77
2023/07/13 07:18:44;;;;;;;4.15;1.40;;;;;;;;;;4991579;28;20432;-77
2023/07/13 07:21:13;;;;;;;4.60;1.73;;;32.50;31.10;;;;;;4991044;28;20049;-76
2023/07/13 07:23:42;;;;;;;5.82;1.90;;;32.00;31.90;;;;;;4974297;28;20038;-77
2023/07/13 07:26:09;;;;;;;5.05;1.88;;;31.90;33.70;;;;;;4992272;28;20050;-77
2023/07/13 07:28:40;;;;;;;3.35;1.65;;;33.10;32.00;;;;;;4993400;28;20500;-78
2023/07/13 07:31:06;;;;;;;6.85;1.73;;;34.40;30.90;;;;;;4974877;28;20023;-77
2023/07/13 07:33:34;;;;;;;6.00;1.67;;;;;;;;;;4974596;28;20030;-77
2023/07/13 07:36:00;;;;;;;13.77;1.75;;;36.30;28.40;;;;;;4984352;28;20467;-77
2023/07/13 07:38:26;;;;;;;3.92;1.45;;;36.50;28.10;;;;;;4954684;28;20177;-77
2023/07/13 07:40:52;;;;;;;5.47;1.70;;;37.70;27.00;;;;;;4955036;28;20082;-77
2023/07/13 07:43:18;;;;;;;2.65;0.90;;;;;;;;;;4972315;28;20034;-77
2023/07/13 07:45:45;;;;;;;3.63;1.10;;;;;;;;;;4953453;28;20026;-77
2023/07/13 07:48:12;;;;;;;2.55;1.20;;;;;;;;;;4962614;28;20029;-76
2023/07/13 07:50:40;;;;;;;3.42;1.30;;;;;;;;;;4971891;28;20042;-77
2023/07/13 07:53:07;;;;;;;6.97;1.30;;;;;;;;;;4988385;28;20030;-77
2023/07/13 07:55:37;;;;;;;1.50;0.90;;;;;;;;;;4971605;28;20033;-77
2023/07/13 07:58:03;;;;;;;8.10;1.63;;;;;;;;;;4989475;28;20026;-77
2023/07/13 08:00:33;;;;;;;3.90;1.10;;;;;;;;;;4990678;28;20113;-77
2023/07/13 08:02:59;;;;;;;1.58;1.05;;;;;;;;;;4990654;28;20087;-77
2023/07/13 08:05:28;;;;;;;4.05;1.40;;;38.30;24.50;;;;;;4991627;28;20023;-77
2023/07/13 08:07:54;;;;;;;2.95;1.25;;;;;;;;;;4973006;28;20062;-78
2023/07/13 08:10:20;;;;;;;6.93;1.52;;;36.30;27.10;;;;;;4991834;28;20113;-77
2023/07/13 08:12:48;;;;;;;5.68;1.42;;;35.40;27.50;;;;;;4976679;28;20402;-80
2023/07/13 08:15:15;;;;;;;6.13;1.27;;;35.40;27.90;;;;;;4994465;28;20439;-79
2023/07/13 08:20:09;;;;;;;82.30;73.72;;;35.30;27.60;;;;;;4973045;28;20058;-71
2023/07/13 08:22:35;;;;;;;11.70;8.20;;;36.20;27.10;;;;;;4971538;28;20027;-71
2023/07/13 08:25:01;;;;;;;22.48;18.13;;;35.90;27.20;;;;;;4954080;28;20405;-71
2023/07/13 08:27:28;;;;;;;43.72;39.33;;;35.40;27.90;;;;;;4970918;28;20109;-72
2023/07/13 08:29:54;;;;;;;4.82;3.78;;;35.90;28.50;;;;;;4971268;28;20054;-69
2023/07/13 08:32:21;;;;;;;24.85;9.82;;;36.30;26.50;;;;;;4971428;28;20054;-70
2023/07/13 08:34:47;;;;;;;3.63;1.80;;;36.60;25.20;;;;;;4955415;28;20806;-70
2023/07/13 08:37:13;;;;;;;4.75;1.52;;;36.40;25.70;;;;;;4951453;29;20055;-70
2023/07/13 08:39:39;;;;;;;4.75;1.98;;;36.00;25.40;;;;;;4952716;29;20065;-70
2023/07/13 08:42:29;;;;;;;3.80;1.23;;;34.90;28.30;;;;;;4952313;28;20102;-71
2023/07/13 08:45:20;;;;;;;3.42;1.42;;;35.90;27.90;;;;;;4951912;28;20474;-71
2023/07/13 08:47:49;;;;;;;;;;;35.60;27.80;;;;;;4951733;28;20030;-70
2023/07/13 08:50:19;;;;;;;2.33;1.20;;;35.90;28.00;;;;;;4952019;29;19906;-70
2023/07/13 08:52:46;;;;;;;3.10;1.57;;;36.20;26.90;;;;;;4952271;28;20027;-70
2023/07/13 08:55:20;;;;;;;2.90;1.38;;;36.90;26.30;;;;;;4951767;28;20023;-71
2023/07/13 08:57:52;;;;;;;2.90;1.05;;;36.90;25.30;;;;;;4951209;29;20054;-70
2023/07/13 09:00:18;;;;;;;2.28;1.17;;;36.40;26.90;;;;;;4952207;29;20106;-70
2023/07/13 09:02:57;;;;;;;4.82;3.50;;;35.40;28.20;;;;;;4951895;28;20455;-73
2023/07/13 09:05:43;;;;;;;141.88;107.72;;;34.30;29.10;;;;;;4951605;29;20027;-72
2023/07/13 09:08:31;;;;;;;15.13;10.85;;;33.50;31.60;;;;;;4950808;29;20047;-72
2023/07/13 09:11:38;;;;;;;15.20;8.55;;;33.60;31.30;;;;;;4952078;28;20024;-71
2023/07/13 09:14:19;;;;;;;2.85;1.45;;;33.90;30.10;;;;;;4950647;28;20078;-71
2023/07/13 09:16:48;;;;;;;5.75;2.30;;;33.90;29.30;;;;;;4948999;29;20031;-72
2023/07/13 09:19:26;;;;;;;5.15;2.03;;;35.20;27.20;;;;;;4952261;28;20035;-72
2023/07/13 09:21:54;;;;;;;5.25;2.00;;;35.50;26.30;;;;;;4955270;29;20039;-71
2023/07/13 09:25:01;;;;;;;2.95;1.80;;;34.80;28.10;;;;;;4954772;29;20027;-71
2023/07/13 09:27:41;;;;;;;2.97;1.20;;;35.60;26.60;;;;;;4954934;28;20020;-71
2023/07/13 09:30:15;;;;;;;3.55;1.23;;;34.90;26.60;;;;;;4955712;28;20023;-71
2023/07/13 09:32:50;;;;;;;3.35;1.63;;;34.90;28.10;;;;;;4954994;28;20058;-71
2023/07/13 09:35:21;;;;;;;2.58;1.38;;;34.10;28.80;;;;;;4954821;28;20061;-71
2023/07/13 09:37:47;;;;;;;3.25;1.45;;;;;;;;;;4954744;29;20033;-71
2023/07/13 09:40:25;;;;;;;5.28;1.65;;;;;;;;;;4955020;28;20035;-71
2023/07/13 09:42:53;;;;;;;6.03;1.42;;;32.70;30.80;;;;;;4953992;28;20050;-70
2023/07/13 09:45:30;;;;;;;4.68;1.45;;;32.90;30.40;;;;;;4958167;28;20039;-71
2023/07/13 09:48:03;;;;;;;3.67;1.17;;;33.30;29.90;;;;;;4936611;29;20023;-71
2023/07/13 09:50:29;;;;;;;4.78;1.85;;;32.60;30.70;;;;;;4954460;28;20019;-71
2023/07/13 09:52:58;;;;;;;4.93;1.88;;;31.80;31.90;;;;;;4954580;29;20082;-71
2023/07/13 09:55:31;;;;;;;5.65;1.63;;;31.70;32.10;;;;;;4954769;29;20569;-71
2023/07/13 09:57:57;;;;;;;2.78;1.17;;;31.80;33.30;;;;;;4953780;28;20050;-71
2023/07/13 10:00:29;;;;;;;5.97;1.23;;;32.40;32.50;;;;;;4954969;29;20410;-71
2023/07/13 10:03:11;;;;;;;2.38;1.40;;;32.60;31.60;;;;;;4954620;29;20055;-71
2023/07/13 10:05:41;;;;;;;2.45;1.40;;;33.20;29.80;;;;;;4955043;29;20016;-71
2023/07/13 10:08:20;;;;;;;8.00;1.83;;;33.20;30.60;;;;;;4953648;29;20031;-71
2023/07/13 10:10:53;;;;;;;3.78;1.27;;;32.60;29.90;;;;;;4954360;28;20031;-71
2023/07/13 10:13:29;;;;;;;6.32;1.95;;;32.00;31.40;;;;;;4954480;29;20027;-71
2023/07/13 10:15:57;;;;;;;15.20;2.15;;;31.80;31.70;;;;;;4954558;28;20580;-71
2023/07/13 10:18:24;;;;;;;13.52;1.95;;;31.30;33.60;;;;;;4953345;28;20031;-71
2023/07/13 10:21:13;;;;;;;13.73;2.28;;;31.60;33.20;;;;;;4954597;28;20358;-71
2023/07/13 10:23:39;;;;;;;12.00;1.50;;;31.50;33.00;;;;;;4943225;28;20099;-71
2023/07/13 10:26:14;;;;;;;2.00;1.08;;;31.80;33.10;;;;;;4936624;29;20146;-71
2023/07/13 10:28:41;;;;;;;6.35;1.98;;;31.60;32.30;;;;;;4952185;29;20026;-71
2023/07/13 10:31:15;;;;;;;4.80;1.60;;;31.60;32.90;;;;;;4951966;28;20019;-72
2023/07/13 10:33:41;;;;;;;2.53;1.10;;;31.50;31.50;;;;;;4952282;28;20055;-71
2023/07/13 10:36:39;;;;;;;3.13;1.17;;;31.50;32.70;;;;;;4949499;29;20114;-71
2023/07/13 10:39:05;;;;;;;4.72;1.38;;;31.50;32.70;;;;;;4950396;29;20042;-71
2023/07/13 10:41:38;;;;;;;5.80;1.30;;;31.50;31.50;;;;;;4939009;29;20032;-72
2023/07/13 10:44:10;;;;;;;4.00;1.40;;;30.80;33.40;;;;;;4934665;29;20052;-71
2023/07/13 10:46:35;;;;;;;2.67;1.20;;;30.90;34.10;;;;;;4935086;29;20031;-70
2023/07/13 10:49:05;;;;;;;4.97;2.10;;;31.20;33.30;;;;;;4943884;29;20537;-70
2023/07/13 10:51:32;;;;;;;4.07;1.52;;;31.20;31.60;;;;;;4953674;29;20082;-71
2023/07/13 10:54:11;;;;;;;4.03;1.83;;;31.00;32.70;;;;;;4953520;29;20099;-70
2023/07/13 10:56:39;;;;;;;5.57;1.55;;;31.10;33.20;;;;;;4953761;28;20034;-70
2023/07/13 10:59:25;;;;;;;2.65;1.40;;;31.20;32.70;;;;;;4952507;29;20031;-70
2023/07/13 11:01:59;;;;;;;3.60;1.50;;;31.20;32.50;;;;;;4952054;29;20561;-69
2023/07/13 11:04:29;;;;;;;4.25;1.55;;;31.20;32.70;;;;;;4953591;28;20055;-71
2023/07/13 11:06:59;;;;;;;5.75;1.80;;;31.00;31.60;;;;;;4953690;29;20062;-71
2023/07/13 11:09:36;;;;;;;6.22;1.42;;;30.70;32.20;;;;;;4953138;29;20023;-70
2023/07/13 11:12:26;;;;;;;3.53;1.42;;;30.50;32.30;;;;;;4935143;29;20147;-70
2023/07/13 11:14:54;;;;;;;4.65;1.35;;;30.50;32.50;;;;;;4952931;29;20023;-70
2023/07/13 11:17:33;;;;;;;4.25;1.50;;;;;;;;;;4952544;29;20023;-71
2023/07/13 11:20:10;;;;;;;4.32;1.30;;;;;;;;;;4953007;28;20083;-71
2023/07/13 11:22:43;;;;;;;3.80;1.13;;;;;;;;;;4953125;28;20027;-70
2023/07/13 11:25:28;;;;;;;5.13;1.30;;;;;;;;;;4935820;29;20019;-71
2023/07/13 11:28:09;;;;;;;5.05;2.00;;;;;;;;;;4955743;28;20028;-78
2023/07/13 11:30:42;;;;;;;5.00;1.42;;;;;;;;;;4938735;29;20023;-78
2023/07/13 11:33:30;;;;;;;6.85;1.75;;;;;;;;;;4942081;29;20036;-78
2023/07/13 11:36:03;;;;;;;2.97;1.35;;;;;;;;;;4940838;29;20031;-78
2023/07/13 11:38:43;;;;;;;2.10;1.40;;;;;;;;;;4938318;29;20122;-78
2023/07/13 11:41:18;;;;;;;4.05;1.83;;;;;;;;;;4940828;29;20055;-78
2023/07/13 11:43:44;;;;;;;5.30;1.30;;;;;;;;;;4938390;29;20466;-78
2023/07/13 11:46:26;;;;;;;3.28;1.20;;;;;;;;;;4948556;29;20059;-78
2023/07/13 11:48:55;;;;;;;6.07;1.65;;;;;;;;;;4943783;29;20058;-78
2023/07/13 11:51:23;;;;;;;4.55;1.50;;;;;;;;;;4959023;29;20509;-78
2023/07/13 11:53:50;;;;;;;4.07;1.25;;;;;;;;;;4941032;29;20109;-79
2023/07/13 11:56:17;;;;;;;5.30;1.70;;;;;;;;;;4941418;29;20034;-78
2023/07/13 11:58:43;;;;;;;4.82;1.30;;;;;;;;;;4958467;29;20033;-79
2023/07/13 12:01:25;;;;;;;3.10;1.30;;;;;;;;;;4955961;29;20044;-77
2023/07/13 12:03:53;;;;;;;4.07;1.35;;;;;;;;;;4947716;29;20414;-78
2023/07/13 12:06:30;;;;;;;4.47;1.45;;;;;;;;;;4931248;29;20462;-78
2023/07/13 12:09:00;;;;;;;2.20;1.30;;;;;;;;;;4947474;29;20023;-78
2023/07/13 12:11:29;;;;;;;6.60;1.27;;;;;;;;;;4948826;29;20095;-78
2023/07/13 12:13:56;;;;;;;5.57;1.40;;;;;;;;;;4943338;29;20086;-78
2023/07/13 12:16:32;;;;;;;6.05;1.50;;;;;;;;;;4941813;29;20230;-78
2023/07/13 12:19:02;;;;;;;6.55;1.48;;;;;;;;;;4941181;29;20043;-78
2023/07/13 12:21:34;;;;;;;2.47;1.42;;;;;;;;;;4943441;29;20028;-79
2023/07/13 12:24:02;;;;;;;8.55;1.95;;;;;;;;;;4943701;28;20054;-78
2023/07/13 12:26:29;;;;;;;8.15;1.67;;;;;;;;;;4960093;28;20031;-78
2023/07/13 12:28:56;;;;;;;4.93;1.67;;;;;;;;;;4957532;28;20098;-78
2023/07/13 12:31:34;;;;;;;6.93;1.52;;;;;;;;;;4957080;29;20078;-77
2023/07/13 12:34:19;;;;;;;6.97;1.92;;;;;;;;;;4957676;29;20031;-78
2023/07/13 12:37:11;;;;;;;4.70;1.45;;;;;;;;;;4944429;29;20539;-79
2023/07/13 12:39:39;;;;;;;5.32;2.13;;;;;;;;;;4960464;28;20062;-80
2023/07/13 12:42:26;;;;;;;2.85;1.50;;;;;;;;;;4961271;28;20039;-79
2023/07/13 12:44:57;;;;;;;4.97;1.48;;;;;;;;;;4942535;29;20019;-78
2023/07/13 12:47:25;;;;;;;3.42;1.40;;;;;;;;;;4957985;29;20050;-79
2023/07/13 12:49:59;;;;;;;6.82;1.73;;;;;;;;;;4958637;28;20016;-78
2023/07/13 12:52:35;;;;;;;4.32;1.80;;;;;;;;;;4958999;28;20031;-77
2023/07/13 12:55:04;;;;;;;2.80;1.40;;;;;;;;;;4939711;29;20047;-78
2023/07/13 12:57:34;;;;;;;9.65;1.60;;;;;;;;;;4958956;29;20034;-78
2023/07/13 13:00:00;;;;;;;4.15;1.55;;;;;;;;;;4962697;29;20034;-78
2023/07/13 13:02:29;;;;;;;4.93;1.58;;;;;;;;;;4962123;29;20489;-78
2023/07/13 13:04:56;;;;;;;4.40;1.15;;;;;;;;;;4945394;29;20449;-78
2023/07/13 13:07:28;;;;;;;4.22;1.70;;;;;;;;;;4945427;29;20421;-77
2023/07/13 13:09:54;;;;;;;3.70;1.60;;;;;;;;;;4962437;29;20051;-78
2023/07/13 13:12:21;;;;;;;3.33;1.20;;;;;;;;;;4959419;28;20494;-77
2023/07/13 13:14:52;;;;;;;7.43;1.58;;;;;;;;;;4927870;29;20034;-77
2023/07/13 13:17:29;;;;;;;3.78;1.40;;;;;;;;;;4940574;29;20035;-77
2023/07/13 13:19:58;;;;;;;6.75;1.65;;;;;;;;;;4921127;29;20485;-78
2023/07/13 13:22:24;;;;;;;3.22;1.27;;;;;;;;;;4922877;29;20074;-77
2023/07/13 13:24:51;;;;;;;4.15;1.00;;;;;;;;;;4929041;29;20103;-78
2023/07/13 13:27:18;;;;;;;4.25;1.85;;;;;;;;;;4952912;29;20028;-77
2023/07/13 13:29:50;;;;;;;6.63;1.52;;;;;;;;;;4923575;29;20027;-78
2023/07/13 13:32:16;;;;;;;3.90;1.30;;;;;;;;;;4924220;29;20027;-78
2023/07/13 13:34:45;;;;;;;2.67;1.10;;;;;;;;;;4941411;29;20027;-78
2023/07/13 13:37:28;;;;;;;4.20;1.65;;;;;;;;;;4925032;29;20032;-78
2023/07/13 13:40:00;;;;;;;4.60;1.55;;;;;;;;;;4952779;29;20027;-78
2023/07/13 13:42:28;;;;;;;8.88;1.40;;;;;;;;;;4952766;29;20083;-78
2023/07/13 13:44:56;;;;;;;5.43;1.77;;;;;;;;;;4929976;29;20028;-79
2023/07/13 13:47:33;;;;;;;2.55;1.15;;;;;;;;;;4945868;29;20028;-78
2023/07/13 13:50:00;;;;;;;3.70;1.42;;;;;;;;;;4944234;29;20024;-78
2023/07/13 13:52:28;;;;;;;4.53;1.30;;;;;;;;;;4924700;29;20430;-78
2023/07/13 13:54:55;;;;;;;3.72;1.95;;;;;;;;;;4937246;29;20036;-77
2023/07/13 13:57:25;;;;;;;2.60;1.30;;;;;;;;;;4941499;29;20028;-78
2023/07/13 14:00:07;;;;;;;2.75;1.25;;;;;;;;;;4945709;29;20028;-78
2023/07/13 14:02:33;;;;;;;3.85;1.25;;;;;;;;;;4927044;29;20028;-78
2023/07/13 14:05:01;;;;;;;4.25;1.48;;;;;;;;;;4924983;29;20036;-78
2023/07/13 14:07:29;;;;;;;8.43;1.65;;;;;;;;;;4923414;29;20027;-78
2023/07/13 14:09:57;;;;;;;2.05;1.15;;;;;;;;;;4923686;29;20086;-78
2023/07/13 14:12:26;;;;;;;3.28;1.40;;;;;;;;;;4926315;29;20043;-78
2023/07/13 14:14:52;;;;;;;8.20;1.23;;;;;;;;;;4955779;28;20034;-77
2023/07/13 14:17:24;;;;;;;4.93;1.30;;;;;;;;;;4969263;28;20027;-78